Time;durP1;ratioP1;P1;durP2;ratioP2;P2;SDS_P1;SDS_P2;PMS_P1;PMS_P2;Temp;Humidity;BMP_temperature;BMP_pressure;BME280_temperature;BME280_humidity;BME280_pressure;Samples;Min_cycle;Max_cycle;Signal;HPM_P1;HPM_P2
2022/08/10 00:00:46;;;;;;;;;4.00;4.00;;;;;;;;5098544;27;45373;-83
2022/08/10 00:03:11;;;;;;;;;5.33;5.33;;;;;;;;5098439;27;45395;-82
2022/08/10 00:05:36;;;;;;;;;8.00;5.00;;;;;;;;5098617;27;45277;-83
2022/08/10 00:08:02;;;;;;;;;5.33;4.67;;;;;;;;5097706;27;46569;-78
2022/08/10 00:10:27;;;;;;;;;4.67;4.00;;;;;;;;5098040;27;45380;-81
2022/08/10 00:12:53;;;;;;;;;4.67;4.67;;;;;;;;5098179;27;45601;-83
2022/08/10 00:15:19;;;;;;;;;5.33;5.33;;;;;;;;5098511;27;45311;-80
2022/08/10 00:17:44;;;;;;;;;6.00;4.67;;;;;;;;5097793;27;45731;-82
2022/08/10 00:20:10;;;;;;;;;5.33;3.00;;;;;;;;5097842;27;45479;-83
2022/08/10 00:22:35;;;;;;;;;3.00;3.00;;;;;;;;5098238;27;45399;-82
2022/08/10 00:25:01;;;;;;;;;4.00;4.00;;;;;;;;5098258;27;45332;-83
2022/08/10 00:27:27;;;;;;;;;5.33;4.00;;;;;;;;5098046;27;47185;-79
2022/08/10 00:29:52;;;;;;;;;5.00;5.00;;;;;;;;5098014;27;45252;-82
2022/08/10 00:32:18;;;;;;;;;4.00;4.00;;;;;;;;5097831;27;45376;-78
2022/08/10 00:34:44;;;;;;;;;6.00;3.00;;;;;;;;5101286;27;45135;-81
2022/08/10 00:37:09;;;;;;;;;4.33;4.33;;;;;;;;5101295;27;47088;-82
2022/08/10 00:39:35;;;;;;;;;4.00;4.00;;;;;;;;5101340;27;45262;-82
2022/08/10 00:42:00;;;;;;;;;7.00;5.00;;;;;;;;5101389;27;45557;-83
2022/08/10 00:44:25;;;;;;;;;7.67;5.00;;;;;;;;5101499;27;45218;-84
2022/08/10 00:46:50;;;;;;;;;7.00;4.00;;;;;;;;5102018;27;45530;-75
2022/08/10 00:49:16;;;;;;;;;6.00;6.00;;;;;;;;5101186;27;45376;-81
2022/08/10 00:51:41;;;;;;;;;6.00;4.00;;;;;;;;5101488;27;45358;-77
2022/08/10 00:54:07;;;;;;;;;6.33;5.00;;;;;;;;5101594;27;45146;-83
2022/08/10 00:56:33;;;;;;;;;7.33;5.67;;;;;;;;5101156;27;46564;-84
2022/08/10 00:58:58;;;;;;;;;5.67;4.67;;;;;;;;5101073;27;45502;-75
2022/08/10 01:01:23;;;;;;;;;4.33;4.33;;;;;;;;5101058;27;45260;-84
2022/08/10 01:03:48;;;;;;;;;4.33;4.33;;;;;;;;5101510;27;45562;-82
2022/08/10 01:06:23;;;;;;;;;5.33;5.33;;;;;;;;5100535;27;45498;-80
2022/08/10 01:08:54;;;;;;;;;5.00;5.00;;;;;;;;5101120;27;45356;-82
2022/08/10 01:11:30;;;;;;;;;5.00;5.00;;;;;;;;5100945;27;45258;-80
2022/08/10 01:14:00;;;;;;;;;6.00;4.00;;;;;;;;5101059;27;45439;-80
2022/08/10 01:16:33;;;;;;;;;4.33;4.33;;;;;;;;5100430;27;47242;-80
2022/08/10 01:18:58;;;;;;;;;4.33;4.00;;;;;;;;5100477;27;45352;-81
2022/08/10 01:21:47;;;;;;;;;5.67;4.00;;;;;;;;5101005;27;45502;-84
2022/08/10 01:24:27;;;;;;;;;5.33;4.00;;;;;;;;5101086;27;45352;-83
2022/08/10 01:27:11;;;;;;;;;6.33;5.00;;;;;;;;5100512;27;45660;-82
2022/08/10 01:29:58;;;;;;;;;5.00;5.00;;;;;;;;5100688;27;45335;-83
2022/08/10 01:32:29;;;;;;;;;4.33;4.33;;;;;;;;5100569;27;45360;-82
2022/08/10 01:34:58;;;;;;;;;5.67;4.00;;;;;;;;5100507;27;45449;-77
2022/08/10 01:37:29;;;;;;;;;4.67;4.67;;;;;;;;5100402;27;45492;-78
2022/08/10 01:39:56;;;;;;;;;4.67;4.00;;;;;;;;5100764;27;45355;-83
2022/08/10 01:42:22;;;;;;;;;4.00;4.00;;;;;;;;5100438;27;45201;-84
2022/08/10 01:44:53;;;;;;;;;4.67;4.33;;;;;;;;5100142;27;45466;-84
2022/08/10 01:50:16;;;;;;;;;4.00;4.00;;;;;;;;5100506;27;45353;-75
2022/08/10 01:52:44;;;;;;;;;4.00;4.00;;;;;;;;5100414;27;45459;-83
2022/08/10 01:55:12;;;;;;;;;4.00;4.00;;;;;;;;5100516;27;45446;-80
2022/08/10 01:57:39;;;;;;;;;6.67;4.33;;;;;;;;5099750;27;45424;-80
2022/08/10 02:00:05;;;;;;;;;7.00;5.33;;;;;;;;5080564;27;45492;-83
2022/08/10 02:02:32;;;;;;;;;6.00;6.00;;;;;;;;5100210;27;45269;-82
2022/08/10 02:04:58;;;;;;;;;6.00;6.00;;;;;;;;5100058;27;45294;-76
2022/08/10 02:07:26;;;;;;;;;8.00;5.00;;;;;;;;5099564;27;45341;-83
2022/08/10 02:09:53;;;;;;;;;4.67;4.67;;;;;;;;5100130;27;45366;-81
2022/08/10 02:12:20;;;;;;;;;4.00;4.00;;;;;;;;5100422;27;45316;-82
2022/08/10 02:14:48;;;;;;;;;7.00;5.33;;;;;;;;5100613;27;45368;-83
2022/08/10 02:17:15;;;;;;;;;8.00;6.00;;;;;;;;5099700;27;45431;-84
2022/08/10 02:19:42;;;;;;;;;5.00;5.00;;;;;;;;5100021;27;45343;-78
2022/08/10 02:22:08;;;;;;;;;9.33;6.67;;;;;;;;5099472;27;45410;-82
2022/08/10 02:24:33;;;;;;;;;5.00;5.00;;;;;;;;5099785;27;45209;-76
2022/08/10 02:26:59;;;;;;;;;5.00;5.00;;;;;;;;5098775;27;46243;-85
2022/08/10 02:29:25;;;;;;;;;4.00;4.00;;;;;;;;5100220;27;45194;-83
2022/08/10 02:31:51;;;;;;;;;4.00;4.00;;;;;;;;5099736;27;45355;-82
2022/08/10 02:34:16;;;;;;;;;4.00;3.33;;;;;;;;5100012;27;45328;-80
2022/08/10 02:36:43;;;;;;;;;3.33;3.00;;;;;;;;5099617;27;45489;-75
2022/08/10 02:39:10;;;;;;;;;5.67;5.67;;;;;;;;5099670;27;45409;-82
2022/08/10 02:41:50;;;;;;;;;6.67;6.00;;;;;;;;5099723;27;45410;-82
2022/08/10 02:44:23;;;;;;;;;4.00;4.00;;;;;;;;5100255;27;45252;-83
2022/08/10 02:46:54;;;;;;;;;7.00;7.00;;;;;;;;5099448;27;45745;-83
2022/08/10 02:49:21;;;;;;;;;6.33;5.00;;;;;;;;5099551;27;45459;-76
2022/08/10 02:52:08;;;;;;;;;5.00;5.00;;;;;;;;5099524;27;45398;-77
2022/08/10 02:54:36;;;;;;;;;4.67;4.67;;;;;;;;5099641;27;45319;-83
2022/08/10 02:57:24;;;;;;;;;5.00;5.00;;;;;;;;5098319;27;45252;-82
2022/08/10 02:59:52;;;;;;;;;6.33;5.67;;;;;;;;5036192;28;45475;-81
2022/08/10 03:02:28;;;;;;;;;3.33;3.33;;;;;;;;5036304;28;45564;-82
2022/08/10 03:04:59;;;;;;;;;4.33;4.33;;;;;;;;5036645;28;45421;-83
2022/08/10 03:07:27;;;;;;;;;4.00;4.00;;;;;;;;5036156;28;47534;-83
2022/08/10 03:09:53;;;;;;;;;6.67;6.00;;;;;;;;5035984;28;45353;-82
2022/08/10 03:12:19;;;;;;;;;6.67;6.67;;;;;;;;5036256;28;45498;-83
2022/08/10 03:14:44;;;;;;;;;5.00;5.00;;;;;;;;5019776;28;45269;-83
2022/08/10 03:17:10;;;;;;;;;3.33;3.33;;;;;;;;5035954;28;45458;-78
2022/08/10 03:19:36;;;;;;;;;6.00;6.00;;;;;;;;5036183;28;45489;-82
2022/08/10 03:22:02;;;;;;;;;5.67;4.00;;;;;;;;5035955;28;45403;-80
2022/08/10 03:24:28;;;;;;;;;4.33;4.33;;;;;;;;5019525;28;45406;-83
2022/08/10 03:26:53;;;;;;;;;5.00;5.00;;;;;;;;5035581;28;46404;-84
2022/08/10 03:29:19;;;;;;;;;7.00;6.00;;;;;;;;5035857;28;45385;-81
2022/08/10 03:31:45;;;;;;;;;5.33;4.00;;;;;;;;5035835;28;45338;-81
2022/08/10 03:34:11;;;;;;;;;6.00;6.00;;;;;;;;5036172;28;45390;-80
2022/08/10 03:36:36;;;;;;;;;5.67;4.00;;;;;;;;5061156;27;46410;-83
2022/08/10 03:39:01;;;;;;;;;5.33;5.33;;;;;;;;5098685;27;45532;-77
2022/08/10 03:41:33;;;;;;;;;5.67;4.33;;;;;;;;5098637;27;45360;-83
2022/08/10 03:44:00;;;;;;;;;9.67;7.00;;;;;;;;5098587;27;45250;-83
2022/08/10 03:46:26;;;;;;;;;5.33;4.00;;;;;;;;5099012;27;46448;-84
2022/08/10 03:48:54;;;;;;;;;4.67;4.67;;;;;;;;5098914;27;45444;-80
2022/08/10 03:51:21;;;;;;;;;5.33;5.33;;;;;;;;5098393;27;45255;-83
2022/08/10 03:53:47;;;;;;;;;7.33;5.00;;;;;;;;5098732;27;45280;-78
2022/08/10 03:56:12;;;;;;;;;7.00;5.00;;;;;;;;5098263;27;45610;-83
2022/08/10 03:58:37;;;;;;;;;6.33;5.00;;;;;;;;5099083;27;45281;-82
2022/08/10 04:01:03;;;;;;;;;6.00;4.67;;;;;;;;5098839;27;45206;-81
2022/08/10 04:03:28;;;;;;;;;4.67;4.67;;;;;;;;5098972;27;45353;-81
2022/08/10 04:05:54;;;;;;;;;6.33;5.00;;;;;;;;5098040;27;47006;-83
2022/08/10 04:08:19;;;;;;;;;6.00;4.00;;;;;;;;5100441;27;45428;-83
2022/08/10 04:10:44;;;;;;;;;7.00;5.00;;;;;;;;5103543;27;45466;-83
2022/08/10 04:13:10;;;;;;;;;7.33;5.00;;;;;;;;5103138;27;45329;-82
2022/08/10 04:15:35;;;;;;;;;8.00;6.00;;;;;;;;5102919;27;46129;-83
2022/08/10 04:18:01;;;;;;;;;5.33;5.33;;;;;;;;5103076;27;45331;-79
2022/08/10 04:20:36;;;;;;;;;5.00;5.00;;;;;;;;5103029;27;45513;-82
2022/08/10 04:23:06;;;;;;;;;6.00;6.00;;;;;;;;5102378;27;45410;-83
2022/08/10 04:25:32;;;;;;;;;5.67;4.00;;;;;;;;5101715;27;45371;-81
2022/08/10 04:27:58;;;;;;;;;4.33;4.33;;;;;;;;5101579;27;45614;-82
2022/08/10 04:30:25;;;;;;;;;8.00;6.00;;;;;;;;5102172;27;45731;-83
2022/08/10 04:32:52;;;;;;;;;7.33;5.67;;;;;;;;5083427;27;45259;-78
2022/08/10 04:35:19;;;;;;;;;6.00;4.67;;;;;;;;5101261;27;45380;-80
2022/08/10 04:37:45;;;;;;;;;9.33;5.67;;;;;;;;5102178;27;45235;-82
2022/08/10 04:40:11;;;;;;;;;7.00;5.00;;;;;;;;5101234;27;45536;-84
2022/08/10 04:42:37;;;;;;;;;5.33;3.33;;;;;;;;5101775;27;45489;-83
2022/08/10 04:45:10;;;;;;;;;6.00;6.00;;;;;;;;5101187;27;46486;-82
2022/08/10 04:47:35;;;;;;;;;9.00;7.00;;;;;;;;5101227;27;45353;-82
2022/08/10 04:50:01;;;;;;;;;6.33;5.33;;;;;;;;5101352;27;45337;-74
2022/08/10 04:52:26;;;;;;;;;3.33;3.33;;;;;;;;5101830;27;45375;-81
2022/08/10 04:54:51;;;;;;;;;8.00;6.00;;;;;;;;5101202;27;46449;-81
2022/08/10 04:57:16;;;;;;;;;11.67;8.00;;;;;;;;5101826;27;45288;-80
2022/08/10 04:59:41;;;;;;;;;6.33;5.33;;;;;;;;5101436;27;45246;-81
2022/08/10 05:02:07;;;;;;;;;4.33;4.33;;;;;;;;5101475;27;45171;-76
2022/08/10 05:04:32;;;;;;;;;6.33;6.33;;;;;;;;5101055;27;45439;-83
2022/08/10 05:06:57;;;;;;;;;8.00;5.33;;;;;;;;5101110;27;45372;-79
2022/08/10 05:09:22;;;;;;;;;11.00;7.67;;;;;;;;5082618;27;45454;-80
2022/08/10 05:11:48;;;;;;;;;7.67;6.00;;;;;;;;5101722;27;45250;-81
2022/08/10 05:14:13;;;;;;;;;7.67;6.00;;;;;;;;5101081;27;45408;-79
2022/08/10 05:16:38;;;;;;;;;7.00;5.67;;;;;;;;5101205;27;45697;-81
2022/08/10 05:19:04;;;;;;;;;6.00;4.67;;;;;;;;5100989;27;45405;-84
2022/08/10 05:21:29;;;;;;;;;4.67;4.67;;;;;;;;5101711;27;45988;-81
2022/08/10 05:23:54;;;;;;;;;6.00;6.00;;;;;;;;5100854;27;46084;-82
2022/08/10 05:26:19;;;;;;;;;5.33;5.33;;;;;;;;5101054;27;45425;-82
2022/08/10 05:28:44;;;;;;;;;6.33;5.00;;;;;;;;5102180;27;45468;-82
2022/08/10 05:31:10;;;;;;;;;7.33;6.00;;;;;;;;5082795;27;45440;-82
2022/08/10 05:33:35;;;;;;;;;6.00;6.00;;;;;;;;5100597;27;46646;-80
2022/08/10 05:36:00;;;;;;;;;7.33;7.33;;;;;;;;5100683;27;45354;-84
2022/08/10 05:38:27;;;;;;;;;6.33;6.33;;;;;;;;5100741;27;45247;-82
2022/08/10 05:40:52;;;;;;;;;7.00;7.00;;;;;;;;5100773;27;45563;-82
2022/08/10 05:43:19;;;;;;;;;5.00;5.00;;;;;;;;5100906;27;46344;-84
2022/08/10 05:45:44;;;;;;;;;6.00;6.00;;;;;;;;5082178;27;46090;-76
2022/08/10 05:48:10;;;;;;;;;9.00;7.33;;;;;;;;5100377;27;45322;-84
2022/08/10 05:50:35;;;;;;;;;5.67;4.33;;;;;;;;5101216;27;45269;-82
2022/08/10 05:53:00;;;;;;;;;8.00;8.00;;;;;;;;5100181;27;46050;-83
2022/08/10 05:55:28;;;;;;;;;6.67;5.00;;;;;;;;5100268;27;45260;-83
2022/08/10 05:57:53;;;;;;;;;6.67;6.00;;;;;;;;5100774;27;45422;-83
2022/08/10 06:00:20;;;;;;;;;6.33;6.33;;;;;;;;5099971;27;45309;-80
2022/08/10 06:02:50;;;;;;;;;6.00;6.00;;;;;;;;5099044;27;46280;-77
2022/08/10 06:05:19;;;;;;;;;7.00;5.00;;;;;;;;5100241;27;45170;-82
2022/08/10 06:08:03;;;;;;;;;5.67;4.33;;;;;;;;5081635;27;45345;-84
2022/08/10 06:10:30;;;;;;;;;10.00;7.00;;;;;;;;5101766;27;45376;-80
2022/08/10 06:15:39;;;;;;;;;7.33;7.33;;;;;;;;5099927;27;45401;-83
2022/08/10 06:18:05;;;;;;;;;6.00;6.00;;;;;;;;5100891;27;45429;-82
2022/08/10 06:20:31;;;;;;;;;12.33;6.67;;;;;;;;5100016;27;45316;-81
2022/08/10 06:22:59;;;;;;;;;9.00;6.33;;;;;;;;5099931;27;46767;-80
2022/08/10 06:25:25;;;;;;;;;8.67;7.33;;;;;;;;5100081;27;45245;-82
2022/08/10 06:27:52;;;;;;;;;7.67;7.67;;;;;;;;5100667;27;45459;-81
2022/08/10 06:30:17;;;;;;;;;10.33;7.67;;;;;;;;5099651;27;45557;-81
2022/08/10 06:32:43;;;;;;;;;6.33;6.00;;;;;;;;5099631;27;46458;-82
2022/08/10 06:35:10;;;;;;;;;7.67;7.00;;;;;;;;5099932;27;45407;-76
2022/08/10 06:37:37;;;;;;;;;8.33;7.67;;;;;;;;5099538;27;45310;-83
2022/08/10 06:40:02;;;;;;;;;7.00;6.00;;;;;;;;5099833;27;45375;-76
2022/08/10 06:42:32;;;;;;;;;8.67;7.00;;;;;;;;5099545;27;46176;-83
2022/08/10 06:45:08;;;;;;;;;10.67;9.00;;;;;;;;5099530;27;45263;-75
2022/08/10 06:47:40;;;;;;;;;7.00;6.67;;;;;;;;5099898;27;45239;-81
2022/08/10 06:50:09;;;;;;;;;7.33;6.67;;;;;;;;5100325;27;45379;-82
2022/08/10 06:52:34;;;;;;;;;9.67;8.33;;;;;;;;5099622;27;47502;-81
2022/08/10 06:55:01;;;;;;;;;5.33;5.33;;;;;;;;5099271;27;45359;-82
2022/08/10 06:57:29;;;;;;;;;9.00;8.33;;;;;;;;5080975;27;45404;-82
2022/08/10 06:59:56;;;;;;;;;8.33;7.67;;;;;;;;5099335;27;45248;-81
2022/08/10 07:02:28;;;;;;;;;11.00;9.00;;;;;;;;5100269;27;46185;-84
2022/08/10 07:04:55;;;;;;;;;9.00;8.00;;;;;;;;5099386;27;45428;-78
2022/08/10 07:07:23;;;;;;;;;8.00;8.00;;;;;;;;5100240;27;45590;-79
2022/08/10 07:09:50;;;;;;;;;8.67;7.33;;;;;;;;5099324;27;45405;-82
2022/08/10 07:12:16;;;;;;;;;6.00;6.00;;;;;;;;5098884;27;46355;-82
2022/08/10 07:14:43;;;;;;;;;9.33;6.67;;;;;;;;5100972;27;45728;-81
2022/08/10 07:17:10;;;;;;;;;8.33;8.00;;;;;;;;5099634;27;45304;-82
2022/08/10 07:19:37;;;;;;;;;8.00;8.00;;;;;;;;5099043;27;45273;-81
2022/08/10 07:22:03;;;;;;;;;8.33;8.33;;;;;;;;5099325;27;46467;-84
2022/08/10 07:24:29;;;;;;;;;6.33;6.00;;;;;;;;5098743;27;45215;-81
2022/08/10 07:26:55;;;;;;;;;8.00;8.00;;;;;;;;5099316;27;45389;-80
2022/08/10 07:29:27;;;;;;;;;8.00;8.00;;;;;;;;5099798;27;45284;-80
2022/08/10 07:31:55;;;;;;;;;10.33;6.67;;;;;;;;5098609;27;46426;-82
2022/08/10 07:34:21;;;;;;;;;8.00;7.00;;;;;;;;5098768;27;45295;-83
2022/08/10 07:36:48;;;;;;;;;7.00;5.67;;;;;;;;5099287;27;45273;-85
2022/08/10 07:39:14;;;;;;;;;7.67;7.67;;;;;;;;5099483;27;45378;-82
2022/08/10 07:41:41;;;;;;;;;6.33;6.33;;;;;;;;5098233;27;46468;-82
2022/08/10 07:44:07;;;;;;;;;10.00;9.00;;;;;;;;5098249;27;45352;-80
2022/08/10 07:46:34;;;;;;;;;10.33;10.00;;;;;;;;5098896;27;45387;-80
2022/08/10 07:49:02;;;;;;;;;7.33;7.00;;;;;;;;5098810;27;45633;-83
2022/08/10 07:51:27;;;;;;;;;6.67;6.67;;;;;;;;5098606;27;45963;-82
2022/08/10 07:53:54;;;;;;;;;9.00;9.00;;;;;;;;5098460;27;45486;-83
2022/08/10 07:56:22;;;;;;;;;6.33;6.33;;;;;;;;5098489;27;45391;-81
2022/08/10 07:58:49;;;;;;;;;11.00;9.00;;;;;;;;5098428;27;45336;-81
2022/08/10 08:01:14;;;;;;;;;8.67;8.67;;;;;;;;5098248;27;47440;-82
2022/08/10 08:03:41;;;;;;;;;4.00;4.00;;;;;;;;5098248;27;45345;-83
2022/08/10 08:06:07;;;;;;;;;9.00;9.00;;;;;;;;5098560;27;45302;-80
2022/08/10 08:08:34;;;;;;;;;10.67;10.00;;;;;;;;5099086;27;45302;-81
2022/08/10 08:10:59;;;;;;;;;7.00;7.00;;;;;;;;5098205;27;45511;-84
2022/08/10 08:13:25;;;;;;;;;12.67;9.67;;;;;;;;5098332;27;45387;-83
2022/08/10 08:15:51;;;;;;;;;10.33;10.33;;;;;;;;5098484;27;45531;-81
2022/08/10 08:18:18;;;;;;;;;10.33;8.33;;;;;;;;5098318;27;45224;-83
2022/08/10 08:20:44;;;;;;;;;11.00;8.00;;;;;;;;5097989;27;45547;-81
2022/08/10 08:23:11;;;;;;;;;6.67;6.67;;;;;;;;5097903;27;45282;-81
2022/08/10 08:25:37;;;;;;;;;10.67;8.67;;;;;;;;5098597;27;45305;-80
2022/08/10 08:28:04;;;;;;;;;10.67;9.67;;;;;;;;5098894;27;45296;-82
2022/08/10 08:30:29;;;;;;;;;10.67;8.67;;;;;;;;5099283;27;45435;-81
2022/08/10 08:32:55;;;;;;;;;7.00;7.00;;;;;;;;5097920;27;45189;-80
2022/08/10 08:35:21;;;;;;;;;23.00;20.33;;;;;;;;5097723;27;45384;-82
2022/08/10 08:37:48;;;;;;;;;10.00;8.33;;;;;;;;5098416;27;45324;-85
2022/08/10 08:40:15;;;;;;;;;11.67;10.33;;;;;;;;5097560;27;46265;-78
2022/08/10 08:42:53;;;;;;;;;9.33;9.33;;;;;;;;5097712;27;45439;-81
2022/08/10 08:45:37;;;;;;;;;9.33;9.00;;;;;;;;5097645;27;45514;-83
2022/08/10 08:48:21;;;;;;;;;9.33;9.33;;;;;;;;5098422;27;45340;-82
2022/08/10 08:51:12;;;;;;;;;10.67;9.00;;;;;;;;5098027;27;46205;-81
2022/08/10 08:53:57;;;;;;;;;12.00;11.33;;;;;;;;5097693;27;45183;-85
2022/08/10 08:56:41;;;;;;;;;9.00;8.00;;;;;;;;5101419;27;45208;-83
2022/08/10 08:59:09;;;;;;;;;10.33;10.33;;;;;;;;5101516;27;45437;-82
2022/08/10 09:01:34;;;;;;;;;10.67;7.67;;;;;;;;5101757;27;46075;-81
2022/08/10 09:04:08;;;;;;;;;9.33;7.33;;;;;;;;5102122;27;45669;-80
2022/08/10 09:06:42;;;;;;;;;9.67;8.00;;;;;;;;5101305;27;45320;-79
2022/08/10 09:09:10;;;;;;;;;8.33;7.33;;;;;;;;5102318;27;45325;-82
2022/08/10 09:11:41;;;;;;;;;8.67;6.67;;;;;;;;5103733;27;45454;-84
2022/08/10 09:14:24;;;;;;;;;9.00;7.00;;;;;;;;5082353;27;45305;-80
2022/08/10 09:17:02;;;;;;;;;9.33;9.00;;;;;;;;5101085;27;45305;-83
2022/08/10 09:19:36;;;;;;;;;9.33;7.33;;;;;;;;5100959;27;45586;-83
2022/08/10 09:22:15;;;;;;;;;11.67;9.33;;;;;;;;5100597;27;46193;-82
2022/08/10 09:24:59;;;;;;;;;11.67;9.67;;;;;;;;5100621;27;45355;-82
2022/08/10 09:27:30;;;;;;;;;8.00;8.00;;;;;;;;5100565;27;45398;-80
2022/08/10 09:29:58;;;;;;;;;7.67;7.67;;;;;;;;5100688;27;45342;-82
2022/08/10 09:32:36;;;;;;;;;11.00;9.00;;;;;;;;5100485;27;46528;-83
2022/08/10 09:35:22;;;;;;;;;9.67;9.67;;;;;;;;5100264;27;45288;-81
2022/08/10 09:37:47;;;;;;;;;11.33;8.67;;;;;;;;5100728;27;45317;-84
2022/08/10 09:40:24;;;;;;;;;11.00;11.00;;;;;;;;5100959;27;45320;-84
2022/08/10 09:43:01;;;;;;;;;9.33;9.33;;;;;;;;5081857;27;47196;-76
2022/08/10 09:45:53;;;;;;;;;7.00;7.00;;;;;;;;5100333;27;45384;-84
2022/08/10 09:48:36;;;;;;;;;7.67;7.67;;;;;;;;5096967;27;45513;-84
2022/08/10 09:51:23;;;;;;;;;7.67;7.67;;;;;;;;5100840;27;45360;-78
2022/08/10 09:54:06;;;;;;;;;8.50;8.50;;;;;;;;5100007;27;46723;-81
2022/08/10 09:56:50;;;;;;;;;11.00;10.00;;;;;;;;5099826;27;45305;-77
2022/08/10 09:59:18;;;;;;;;;9.00;9.00;;;;;;;;5100211;27;45249;-83
2022/08/10 10:01:50;;;;;;;;;10.33;9.00;;;;;;;;5100349;27;45317;-83
2022/08/10 10:04:15;;;;;;;;;8.67;8.67;;;;;;;;5081323;27;46375;-80
2022/08/10 10:06:54;;;;;;;;;7.33;7.33;;;;;;;;5099759;27;45327;-85
2022/08/10 10:09:42;;;;;;;;;8.67;7.00;;;;;;;;5100613;27;45280;-79
2022/08/10 10:12:31;;;;;;;;;7.33;7.33;;;;;;;;5099857;27;45263;-85
2022/08/10 10:18:02;;;;;;;;;9.00;9.00;;;;;;;;5099971;27;45373;-78
2022/08/10 10:20:31;;;;;;;;;7.00;7.00;;;;;;;;5099567;27;45257;-82
2022/08/10 10:23:20;;;;;;;;;9.00;7.00;;;;;;;;5100422;27;45580;-84
2022/08/10 10:26:04;;;;;;;;;7.00;7.00;;;;;;;;5099235;27;45775;-78
2022/08/10 10:28:48;;;;;;;;;7.75;7.75;;;;;;;;5099896;27;45492;-76
2022/08/10 10:31:43;;;;;;;;;7.75;7.50;;;;;;;;5100010;27;45526;-84
2022/08/10 10:34:15;;;;;;;;;8.00;8.00;;;;;;;;5036575;28;45215;-86
2022/08/10 10:36:41;;;;;;;;;7.25;5.75;;;;;;;;5036419;28;47347;-82
2022/08/10 10:39:06;;;;;;;;;7.75;7.75;;;;;;;;5036610;28;45374;-85
2022/08/10 10:41:37;;;;;;;;;7.50;7.50;;;;;;;;5036460;28;45390;-79
2022/08/10 10:44:02;;;;;;;;;6.25;6.25;;;;;;;;5036915;28;45473;-83
2022/08/10 10:46:45;;;;;;;;;9.75;9.00;;;;;;;;5036737;28;46390;-82
2022/08/10 10:49:30;;;;;;;;;7.50;5.50;;;;;;;;5036717;28;45455;-81
2022/08/10 10:52:10;;;;;;;;;6.25;6.25;;;;;;;;5036727;28;45477;-82
2022/08/10 10:54:44;;;;;;;;;7.00;6.50;;;;;;;;5036678;28;45446;-83
2022/08/10 10:57:18;;;;;;;;;7.75;7.75;;;;;;;;5036325;28;46378;-84
2022/08/10 10:59:54;;;;;;;;;8.00;7.00;;;;;;;;5036403;28;45381;-83
2022/08/10 11:02:51;;;;;;;;;5.50;5.50;;;;;;;;5036539;28;45442;-83
2022/08/10 11:05:25;;;;;;;;;9.50;8.75;;;;;;;;4976862;28;45513;-84
2022/08/10 11:07:55;;;;;;;;;11.25;10.00;;;;;;;;4993696;28;46731;-85
2022/08/10 11:10:34;;;;;;;;;5.25;5.25;;;;;;;;5008089;28;45394;-80
2022/08/10 11:13:22;;;;;;;;;6.50;6.50;;;;;;;;5036021;28;45486;-79
2022/08/10 11:16:00;;;;;;;;;8.50;7.75;;;;;;;;5036264;28;45472;-88
2022/08/10 11:18:34;;;;;;;;;8.25;8.25;;;;;;;;5035686;28;47247;-80
2022/08/10 11:21:09;;;;;;;;;6.25;6.25;;;;;;;;5036262;28;45430;-85
2022/08/10 11:23:40;;;;;;;;;8.50;7.75;;;;;;;;5035940;28;45456;-78
2022/08/10 11:26:23;;;;;;;;;9.50;8.25;;;;;;;;5036036;28;45480;-81
2022/08/10 11:28:51;;;;;;;;;6.33;6.33;;;;;;;;5035718;28;45342;-78
2022/08/10 11:31:20;;;;;;;;;7.67;7.67;;;;;;;;5035952;28;45417;-82
2022/08/10 11:33:45;;;;;;;;;9.67;8.00;;;;;;;;5035803;28;45374;-82
2022/08/10 11:36:22;;;;;;;;;8.33;8.33;;;;;;;;5035931;28;45358;-87
2022/08/10 11:39:01;;;;;;;;;8.67;8.67;;;;;;;;5036264;28;45451;-84
2022/08/10 11:41:44;;;;;;;;;9.67;9.67;;;;;;;;5066928;28;45463;-84
2022/08/10 11:44:28;;;;;;;;;10.00;9.00;;;;;;;;5078322;28;45285;-84
2022/08/10 11:47:02;;;;;;;;;8.33;8.33;;;;;;;;5078073;28;45435;-75
2022/08/10 11:49:30;;;;;;;;;9.67;8.00;;;;;;;;5078403;28;45433;-81
2022/08/10 11:51:59;;;;;;;;;10.00;8.00;;;;;;;;5078451;28;45272;-78
2022/08/10 11:54:41;;;;;;;;;9.00;7.00;;;;;;;;5077756;28;45230;-78
2022/08/10 11:57:07;;;;;;;;;9.00;8.00;;;;;;;;5077048;28;45262;-79
2022/08/10 12:02:20;;;;;;;;;11.00;9.33;;;;;;;;5078438;28;45291;-77
2022/08/10 12:04:48;;;;;;;;;7.00;7.00;;;;;;;;5076661;28;45415;-77
2022/08/10 12:07:15;;;;;;;;;9.00;9.00;;;;;;;;5090478;27;45560;-82
2022/08/10 12:09:42;;;;;;;;;8.00;8.00;;;;;;;;5098135;27;46953;-84
2022/08/10 12:12:07;;;;;;;;;8.33;8.33;;;;;;;;5098340;27;45266;-84
2022/08/10 12:14:51;;;;;;;;;8.00;8.00;;;;;;;;5098321;27;45215;-81
2022/08/10 12:17:23;;;;;;;;;7.67;6.67;;;;;;;;5098829;27;45446;-85
2022/08/10 12:20:05;;;;;;;;;8.33;8.00;;;;;;;;5097693;27;46185;-81
2022/08/10 12:22:33;;;;;;;;;11.67;9.00;;;;;;;;5097948;27;45489;-79
2022/08/10 12:25:00;;;;;;;;;8.00;8.00;;;;;;;;5098286;27;45368;-82
2022/08/10 12:27:29;;;;;;;;;8.67;8.67;;;;;;;;5098246;27;45360;-83
2022/08/10 12:30:02;;;;;;;;;11.33;9.67;;;;;;;;5099942;27;45489;-84
2022/08/10 12:32:40;;;;;;;;;12.33;12.33;;;;;;;;5101454;27;45348;-83
2022/08/10 12:35:14;;;;;;;;;8.67;8.67;;;;;;;;5101686;27;45171;-83
2022/08/10 12:37:40;;;;;;;;;8.33;7.00;;;;;;;;5102685;27;45379;-82
2022/08/10 12:40:17;;;;;;;;;9.67;9.33;;;;;;;;5101703;27;46315;-84
2022/08/10 12:42:49;;;;;;;;;9.33;8.00;;;;;;;;5101540;27;45303;-83
2022/08/10 12:45:20;;;;;;;;;8.00;8.00;;;;;;;;5101494;27;45358;-83
2022/08/10 12:47:51;;;;;;;;;14.00;12.33;;;;;;;;5101827;27;45302;-85
2022/08/10 12:50:42;;;;;;;;;9.33;8.33;;;;;;;;5101403;27;45776;-78
2022/08/10 12:53:14;;;;;;;;;8.33;8.33;;;;;;;;5098059;27;45342;-80
2022/08/10 12:55:40;;;;;;;;;6.33;6.33;;;;;;;;5101239;27;45353;-84
2022/08/10 12:58:06;;;;;;;;;8.67;8.67;;;;;;;;5101204;27;45354;-82
2022/08/10 13:00:33;;;;;;;;;9.67;9.67;;;;;;;;5100967;27;47636;-83
2022/08/10 13:03:00;;;;;;;;;8.33;7.00;;;;;;;;5083165;27;45333;-81
2022/08/10 13:05:26;;;;;;;;;9.33;9.33;;;;;;;;5100942;27;46108;-78
2022/08/10 13:09:07;;;;;;;;;10.00;9.33;;;;;;;;5100895;27;45406;-77
2022/08/10 13:10:43;;;;;;;;;9.00;9.00;;;;;;;;5100943;27;45388;-80
2022/08/10 13:13:13;;;;;;;;;11.33;11.33;;;;;;;;5100864;27;45189;-78
2022/08/10 13:15:43;;;;;;;;;9.00;9.00;;;;;;;;5101049;27;45301;-81
2022/08/10 13:18:09;;;;;;;;;9.00;9.00;;;;;;;;5101128;27;45483;-78
2022/08/10 13:20:35;;;;;;;;;7.33;7.33;;;;;;;;5100388;27;46649;-78
2022/08/10 13:23:04;;;;;;;;;9.00;7.33;;;;;;;;5100748;27;45413;-85
2022/08/10 13:25:37;;;;;;;;;8.67;8.67;;;;;;;;5101424;27;45442;-87
2022/08/10 13:28:07;;;;;;;;;7.67;7.67;;;;;;;;5101561;27;45305;-81
2022/08/10 13:30:33;;;;;;;;;9.00;8.33;;;;;;;;5100761;27;46403;-84
2022/08/10 13:33:00;;;;;;;;;11.33;10.00;;;;;;;;5100793;27;45285;-76
2022/08/10 13:35:26;;;;;;;;;8.00;8.00;;;;;;;;5100743;27;45471;-78
2022/08/10 13:37:54;;;;;;;;;9.00;9.00;;;;;;;;5100873;27;45570;-82
2022/08/10 13:40:23;;;;;;;;;9.00;7.67;;;;;;;;5099875;27;46279;-81
2022/08/10 13:42:50;;;;;;;;;6.00;6.00;;;;;;;;5100257;27;45491;-77
2022/08/10 13:45:16;;;;;;;;;10.00;8.67;;;;;;;;5100399;27;45363;-87
2022/08/10 13:47:43;;;;;;;;;7.67;7.33;;;;;;;;5100584;27;45434;-81
2022/08/10 13:50:13;;;;;;;;;8.00;8.00;;;;;;;;5100219;27;45521;-87
2022/08/10 13:52:40;;;;;;;;;12.67;10.00;;;;;;;;5100759;27;45268;-85
2022/08/10 13:55:09;;;;;;;;;9.00;9.00;;;;;;;;5100641;27;45380;-88
2022/08/10 13:57:37;;;;;;;;;9.00;7.00;;;;;;;;5100945;27;45435;-86
2022/08/10 14:00:06;;;;;;;;;7.67;7.67;;;;;;;;5100192;27;45288;-86
2022/08/10 14:02:37;;;;;;;;;9.67;9.67;;;;;;;;5100723;27;45361;-80
2022/08/10 14:05:03;;;;;;;;;9.33;8.33;;;;;;;;5100196;27;45658;-84
2022/08/10 14:07:30;;;;;;;;;10.33;8.67;;;;;;;;5081578;27;46066;-79
2022/08/10 14:10:06;;;;;;;;;8.33;7.00;;;;;;;;5099845;27;46089;-77
2022/08/10 14:12:33;;;;;;;;;9.00;8.67;;;;;;;;5099896;27;45462;-86
2022/08/10 14:14:59;;;;;;;;;7.67;6.67;;;;;;;;5100625;27;45432;-79
2022/08/10 14:17:26;;;;;;;;;9.00;9.00;;;;;;;;5100209;27;45367;-88
2022/08/10 14:19:54;;;;;;;;;10.67;7.33;;;;;;;;5100257;27;46456;-85
2022/08/10 14:22:20;;;;;;;;;8.67;7.67;;;;;;;;5099862;27;45357;-80
2022/08/10 14:24:45;;;;;;;;;11.33;9.33;;;;;;;;5099968;27;45262;-81
2022/08/10 14:27:14;;;;;;;;;8.00;8.00;;;;;;;;5100071;27;45364;-84
2022/08/10 14:29:42;;;;;;;;;9.00;8.67;;;;;;;;5100215;27;45598;-87
2022/08/10 14:32:09;;;;;;;;;7.67;6.33;;;;;;;;5099997;27;45363;-85
2022/08/10 14:34:35;;;;;;;;;7.00;7.00;;;;;;;;5099936;27;45417;-80
2022/08/10 14:37:02;;;;;;;;;8.00;8.00;;;;;;;;5100296;27;45474;-86
2022/08/10 14:39:33;;;;;;;;;8.67;8.67;;;;;;;;5099580;27;45388;-80
2022/08/10 14:42:01;;;;;;;;;7.67;7.67;;;;;;;;5099598;27;45384;-81
2022/08/10 14:44:29;;;;;;;;;6.33;6.33;;;;;;;;5099324;27;45286;-86
2022/08/10 14:46:56;;;;;;;;;9.00;9.00;;;;;;;;5099880;27;45365;-84
2022/08/10 14:49:23;;;;;;;;;7.67;7.67;;;;;;;;5099400;27;45662;-82
2022/08/10 14:51:48;;;;;;;;;6.00;5.67;;;;;;;;5098314;27;45280;-78
2022/08/10 14:54:16;;;;;;;;;9.00;9.00;;;;;;;;5099523;27;45194;-83
2022/08/10 14:56:42;;;;;;;;;9.33;9.33;;;;;;;;5100010;27;45368;-84
2022/08/10 14:59:09;;;;;;;;;8.67;8.00;;;;;;;;5099197;27;45273;-83
2022/08/10 15:01:35;;;;;;;;;6.67;6.67;;;;;;;;5099189;27;45477;-81
2022/08/10 15:04:04;;;;;;;;;8.00;7.67;;;;;;;;5099757;27;45255;-84
2022/08/10 15:06:36;;;;;;;;;10.00;10.00;;;;;;;;5098873;27;45511;-88